Fort Ross, California
Current Conditions -  °F | °C
As of 4:28 AM on Monday 26 Jan 2015 (Local Time) from KSTS Reporting Station
Moderate Fog Moderate Fog  
Wind Chill:   Ceiling: 100
Heat Index:   Visibility: 0.25mi
Dew Point:   Wind: 5mph
Humidity: 93%   Direction: 130°SE
Pressure: 30.02"   Gusts: NA
Location:  38.4962°N, 123.173°W
Report Text: KSTS 261228Z AUTO 13004KT 1/4SM FG VV001 03/02 A3002 RMK AO2
Loading
Personal Weather Stations






























Interactive Weather Map New forecast layout! Learn more

10-Day Weather Forecast

Advertisements
Track Severe Weather on mobile